sensor_id;sensor_type;location;lat;lon;timestamp;P1;durP1;ratioP1;P2;durP2;ratioP2
19260;SDS011;9764;48.114;11.670;2022-10-23T00:01:20;1.90;;;1.70;;
19260;SDS011;9764;48.114;11.670;2022-10-23T00:03:52;2.00;;;1.50;;
19260;SDS011;9764;48.114;11.670;2022-10-23T00:06:22;1.90;;;1.70;;
19260;SDS011;9764;48.114;11.670;2022-10-23T00:08:51;1.70;;;1.60;;
19260;SDS011;9764;48.114;11.670;2022-10-23T00:11:21;1.70;;;1.60;;
19260;SDS011;9764;48.114;11.670;2022-10-23T00:13:52;1.50;;;1.40;;
19260;SDS011;9764;48.114;11.670;2022-10-23T00:16:23;1.75;;;1.65;;
19260;SDS011;9764;48.114;11.670;2022-10-23T00:18:51;1.83;;;1.73;;
19260;SDS011;9764;48.114;11.670;2022-10-23T00:21:19;1.67;;;1.58;;
19260;SDS011;9764;48.114;11.670;2022-10-23T00:23:48;1.88;;;1.73;;
19260;SDS011;9764;48.114;11.670;2022-10-23T00:26:16;2.08;;;1.88;;
19260;SDS011;9764;48.114;11.670;2022-10-23T00:28:46;2.35;;;1.98;;
19260;SDS011;9764;48.114;11.670;2022-10-23T00:31:16;2.17;;;1.70;;
19260;SDS011;9764;48.114;11.670;2022-10-23T00:33:46;1.67;;;1.58;;
19260;SDS011;9764;48.114;11.670;2022-10-23T00:36:15;1.83;;;1.55;;
19260;SDS011;9764;48.114;11.670;2022-10-23T00:38:45;2.08;;;1.85;;
19260;SDS011;9764;48.114;11.670;2022-10-23T00:41:16;1.90;;;1.65;;
19260;SDS011;9764;48.114;11.670;2022-10-23T00:43:54;1.98;;;1.77;;
19260;SDS011;9764;48.114;11.670;2022-10-23T00:46:24;1.90;;;1.70;;
19260;SDS011;9764;48.114;11.670;2022-10-23T00:48:55;3.00;;;1.85;;
19260;SDS011;9764;48.114;11.670;2022-10-23T00:51:25;2.00;;;1.80;;
19260;SDS011;9764;48.114;11.670;2022-10-23T00:53:56;1.75;;;1.60;;
19260;SDS011;9764;48.114;11.670;2022-10-23T00:56:49;2.15;;;1.90;;
19260;SDS011;9764;48.114;11.670;2022-10-23T00:59:20;2.25;;;1.70;;
19260;SDS011;9764;48.114;11.670;2022-10-23T01:01:48;4.43;;;2.10;;
19260;SDS011;9764;48.114;11.670;2022-10-23T01:04:19;1.75;;;1.50;;
19260;SDS011;9764;48.114;11.670;2022-10-23T01:06:49;1.90;;;1.70;;
19260;SDS011;9764;48.114;11.670;2022-10-23T01:09:27;2.40;;;1.90;;
19260;SDS011;9764;48.114;11.670;2022-10-23T01:12:03;1.70;;;1.60;;
19260;SDS011;9764;48.114;11.670;2022-10-23T01:14:38;2.10;;;1.90;;
19260;SDS011;9764;48.114;11.670;2022-10-23T01:17:14;1.65;;;1.55;;
19260;SDS011;9764;48.114;11.670;2022-10-23T01:19:52;2.30;;;1.77;;
19260;SDS011;9764;48.114;11.670;2022-10-23T01:22:32;1.88;;;1.77;;
19260;SDS011;9764;48.114;11.670;2022-10-23T01:25:22;2.72;;;1.92;;
19260;SDS011;9764;48.114;11.670;2022-10-23T01:28:03;2.17;;;1.92;;
19260;SDS011;9764;48.114;11.670;2022-10-23T01:30:35;2.05;;;1.90;;
19260;SDS011;9764;48.114;11.670;2022-10-23T01:33:10;1.88;;;1.73;;
19260;SDS011;9764;48.114;11.670;2022-10-23T01:35:48;2.95;;;2.13;;
19260;SDS011;9764;48.114;11.670;2022-10-23T01:38:19;1.67;;;1.58;;
19260;SDS011;9764;48.114;11.670;2022-10-23T01:40:55;2.00;;;1.80;;
19260;SDS011;9764;48.114;11.670;2022-10-23T01:43:31;1.58;;;1.48;;
19260;SDS011;9764;48.114;11.670;2022-10-23T01:46:04;2.80;;;2.08;;
19260;SDS011;9764;48.114;11.670;2022-10-23T01:48:38;2.08;;;1.88;;
19260;SDS011;9764;48.114;11.670;2022-10-23T01:51:08;2.33;;;1.70;;
19260;SDS011;9764;48.114;11.670;2022-10-23T01:53:40;2.80;;;1.90;;
19260;SDS011;9764;48.114;11.670;2022-10-23T01:56:13;2.20;;;1.98;;
19260;SDS011;9764;48.114;11.670;2022-10-23T01:58:46;1.88;;;1.77;;
19260;SDS011;9764;48.114;11.670;2022-10-23T02:01:19;1.67;;;1.58;;
19260;SDS011;9764;48.114;11.670;2022-10-23T02:03:51;2.55;;;2.22;;
19260;SDS011;9764;48.114;11.670;2022-10-23T02:06:21;1.95;;;1.77;;
19260;SDS011;9764;48.114;11.670;2022-10-23T02:08:50;2.40;;;2.00;;
19260;SDS011;9764;48.114;11.670;2022-10-23T02:11:19;1.65;;;1.55;;
19260;SDS011;9764;48.114;11.670;2022-10-23T02:13:50;2.03;;;1.83;;
19260;SDS011;9764;48.114;11.670;2022-10-23T02:16:25;2.13;;;1.90;;
19260;SDS011;9764;48.114;11.670;2022-10-23T02:19:03;2.05;;;1.95;;
19260;SDS011;9764;48.114;11.670;2022-10-23T02:21:42;3.00;;;2.15;;
19260;SDS011;9764;48.114;11.670;2022-10-23T02:24:19;2.17;;;1.85;;
19260;SDS011;9764;48.114;11.670;2022-10-23T02:26:54;1.73;;;1.63;;
19260;SDS011;9764;48.114;11.670;2022-10-23T02:29:28;2.13;;;1.83;;
19260;SDS011;9764;48.114;11.670;2022-10-23T02:32:00;2.15;;;1.95;;
19260;SDS011;9764;48.114;11.670;2022-10-23T02:34:28;1.73;;;1.63;;
19260;SDS011;9764;48.114;11.670;2022-10-23T02:36:57;2.20;;;2.00;;
19260;SDS011;9764;48.114;11.670;2022-10-23T02:39:25;2.65;;;1.80;;
19260;SDS011;9764;48.114;11.670;2022-10-23T02:41:56;1.92;;;1.73;;
19260;SDS011;9764;48.114;11.670;2022-10-23T02:44:37;2.10;;;1.90;;
19260;SDS011;9764;48.114;11.670;2022-10-23T02:47:16;2.03;;;1.85;;
19260;SDS011;9764;48.114;11.670;2022-10-23T02:50:00;2.05;;;1.75;;
19260;SDS011;9764;48.114;11.670;2022-10-23T02:52:36;2.13;;;1.90;;
19260;SDS011;9764;48.114;11.670;2022-10-23T02:55:12;2.80;;;2.03;;
19260;SDS011;9764;48.114;11.670;2022-10-23T02:57:50;1.98;;;1.70;;
19260;SDS011;9764;48.114;11.670;2022-10-23T03:00:24;2.42;;;2.03;;
19260;SDS011;9764;48.114;11.670;2022-10-23T03:02:58;2.20;;;2.00;;
19260;SDS011;9764;48.114;11.670;2022-10-23T03:05:30;2.22;;;2.03;;
19260;SDS011;9764;48.114;11.670;2022-10-23T03:08:01;2.08;;;1.88;;
19260;SDS011;9764;48.114;11.670;2022-10-23T03:10:30;1.90;;;1.80;;
19260;SDS011;9764;48.114;11.670;2022-10-23T03:12:58;1.80;;;1.70;;
19260;SDS011;9764;48.114;11.670;2022-10-23T03:15:33;1.77;;;1.67;;
19260;SDS011;9764;48.114;11.670;2022-10-23T03:18:02;1.85;;;1.75;;
19260;SDS011;9764;48.114;11.670;2022-10-23T03:20:30;1.52;;;1.42;;
19260;SDS011;9764;48.114;11.670;2022-10-23T03:22:59;2.60;;;2.00;;
19260;SDS011;9764;48.114;11.670;2022-10-23T03:25:27;2.25;;;2.05;;
19260;SDS011;9764;48.114;11.670;2022-10-23T03:27:57;2.00;;;1.80;;
19260;SDS011;9764;48.114;11.670;2022-10-23T03:30:25;1.60;;;1.50;;
19260;SDS011;9764;48.114;11.670;2022-10-23T03:32:55;2.30;;;2.08;;
19260;SDS011;9764;48.114;11.670;2022-10-23T03:35:23;2.03;;;1.83;;
19260;SDS011;9764;48.114;11.670;2022-10-23T03:37:52;2.10;;;1.90;;
19260;SDS011;9764;48.114;11.670;2022-10-23T03:40:23;2.30;;;2.00;;
19260;SDS011;9764;48.114;11.670;2022-10-23T03:42:51;2.00;;;1.90;;
19260;SDS011;9764;48.114;11.670;2022-10-23T03:45:20;1.90;;;1.80;;
19260;SDS011;9764;48.114;11.670;2022-10-23T03:47:48;2.00;;;1.80;;
19260;SDS011;9764;48.114;11.670;2022-10-23T03:50:18;1.88;;;1.70;;
19260;SDS011;9764;48.114;11.670;2022-10-23T03:52:47;2.10;;;1.90;;
19260;SDS011;9764;48.114;11.670;2022-10-23T03:55:15;1.85;;;1.75;;
19260;SDS011;9764;48.114;11.670;2022-10-23T03:57:44;1.90;;;1.80;;
19260;SDS011;9764;48.114;11.670;2022-10-23T04:00:12;2.03;;;1.88;;
19260;SDS011;9764;48.114;11.670;2022-10-23T04:02:45;2.20;;;1.70;;
19260;SDS011;9764;48.114;11.670;2022-10-23T04:05:14;1.90;;;1.80;;
19260;SDS011;9764;48.114;11.670;2022-10-23T04:07:53;2.00;;;1.80;;
19260;SDS011;9764;48.114;11.670;2022-10-23T04:10:21;2.97;;;1.85;;
19260;SDS011;9764;48.114;11.670;2022-10-23T04:12:49;1.92;;;1.83;;
19260;SDS011;9764;48.114;11.670;2022-10-23T04:15:18;2.10;;;1.90;;
19260;SDS011;9764;48.114;11.670;2022-10-23T04:17:46;2.25;;;1.80;;
19260;SDS011;9764;48.114;11.670;2022-10-23T04:20:14;2.20;;;2.00;;
19260;SDS011;9764;48.114;11.670;2022-10-23T04:22:43;2.20;;;2.00;;
19260;SDS011;9764;48.114;11.670;2022-10-23T04:25:13;1.95;;;1.83;;
19260;SDS011;9764;48.114;11.670;2022-10-23T04:27:42;1.92;;;1.73;;
19260;SDS011;9764;48.114;11.670;2022-10-23T04:30:11;1.75;;;1.65;;
19260;SDS011;9764;48.114;11.670;2022-10-23T04:32:40;1.70;;;1.60;;
19260;SDS011;9764;48.114;11.670;2022-10-23T04:35:08;1.92;;;1.60;;
19260;SDS011;9764;48.114;11.670;2022-10-23T04:37:36;2.28;;;1.80;;
19260;SDS011;9764;48.114;11.670;2022-10-23T04:40:06;1.95;;;1.63;;
19260;SDS011;9764;48.114;11.670;2022-10-23T04:42:37;1.98;;;1.80;;
19260;SDS011;9764;48.114;11.670;2022-10-23T04:45:06;2.10;;;1.90;;
19260;SDS011;9764;48.114;11.670;2022-10-23T04:47:35;1.90;;;1.73;;
19260;SDS011;9764;48.114;11.670;2022-10-23T04:50:04;2.38;;;2.15;;
19260;SDS011;9764;48.114;11.670;2022-10-23T04:52:52;1.50;;;1.40;;
19260;SDS011;9764;48.114;11.670;2022-10-23T04:55:47;1.58;;;1.48;;
19260;SDS011;9764;48.114;11.670;2022-10-23T04:58:29;2.20;;;2.00;;
19260;SDS011;9764;48.114;11.670;2022-10-23T05:00:58;2.13;;;1.92;;
19260;SDS011;9764;48.114;11.670;2022-10-23T05:03:27;2.33;;;2.03;;
19260;SDS011;9764;48.114;11.670;2022-10-23T05:05:55;1.98;;;1.70;;
19260;SDS011;9764;48.114;11.670;2022-10-23T05:08:42;2.33;;;1.90;;
19260;SDS011;9764;48.114;11.670;2022-10-23T05:11:23;1.67;;;1.58;;
19260;SDS011;9764;48.114;11.670;2022-10-23T05:13:52;1.60;;;1.50;;
19260;SDS011;9764;48.114;11.670;2022-10-23T05:16:25;1.90;;;1.70;;
19260;SDS011;9764;48.114;11.670;2022-10-23T05:18:59;3.97;;;1.70;;
19260;SDS011;9764;48.114;11.670;2022-10-23T05:21:28;2.08;;;1.88;;
19260;SDS011;9764;48.114;11.670;2022-10-23T05:24:04;1.58;;;1.48;;
19260;SDS011;9764;48.114;11.670;2022-10-23T05:26:33;1.85;;;1.75;;
19260;SDS011;9764;48.114;11.670;2022-10-23T05:29:07;1.58;;;1.48;;
19260;SDS011;9764;48.114;11.670;2022-10-23T05:31:35;1.80;;;1.70;;
19260;SDS011;9764;48.114;11.670;2022-10-23T05:34:09;1.63;;;1.40;;
19260;SDS011;9764;48.114;11.670;2022-10-23T05:36:42;1.70;;;1.60;;
19260;SDS011;9764;48.114;11.670;2022-10-23T05:39:12;1.65;;;1.55;;
19260;SDS011;9764;48.114;11.670;2022-10-23T05:41:40;2.42;;;1.73;;
19260;SDS011;9764;48.114;11.670;2022-10-23T05:44:11;2.17;;;1.98;;
19260;SDS011;9764;48.114;11.670;2022-10-23T05:47:11;3.03;;;1.80;;
19260;SDS011;9764;48.114;11.670;2022-10-23T05:49:56;1.50;;;1.40;;
19260;SDS011;9764;48.114;11.670;2022-10-23T05:52:44;1.92;;;1.70;;
19260;SDS011;9764;48.114;11.670;2022-10-23T05:55:34;2.13;;;1.42;;
19260;SDS011;9764;48.114;11.670;2022-10-23T05:58:26;1.83;;;1.73;;
19260;SDS011;9764;48.114;11.670;2022-10-23T06:01:13;1.92;;;1.55;;
19260;SDS011;9764;48.114;11.670;2022-10-23T06:03:53;1.45;;;1.35;;
19260;SDS011;9764;48.114;11.670;2022-10-23T06:06:28;1.58;;;1.48;;
19260;SDS011;9764;48.114;11.670;2022-10-23T06:08:57;3.03;;;1.63;;
19260;SDS011;9764;48.114;11.670;2022-10-23T06:11:25;1.60;;;1.50;;
19260;SDS011;9764;48.114;11.670;2022-10-23T06:13:58;1.52;;;1.42;;
19260;SDS011;9764;48.114;11.670;2022-10-23T06:16:28;1.58;;;1.48;;
19260;SDS011;9764;48.114;11.670;2022-10-23T06:18:56;2.50;;;1.70;;
19260;SDS011;9764;48.114;11.670;2022-10-23T06:21:25;1.73;;;1.63;;
19260;SDS011;9764;48.114;11.670;2022-10-23T06:23:54;1.60;;;1.50;;
19260;SDS011;9764;48.114;11.670;2022-10-23T06:26:34;2.15;;;1.40;;
19260;SDS011;9764;48.114;11.670;2022-10-23T06:29:13;2.20;;;1.70;;
19260;SDS011;9764;48.114;11.670;2022-10-23T06:31:43;1.83;;;1.40;;
19260;SDS011;9764;48.114;11.670;2022-10-23T06:34:12;1.95;;;1.40;;
19260;SDS011;9764;48.114;11.670;2022-10-23T06:36:40;1.50;;;1.40;;
19260;SDS011;9764;48.114;11.670;2022-10-23T06:39:29;1.58;;;1.48;;
19260;SDS011;9764;48.114;11.670;2022-10-23T06:42:05;1.33;;;1.23;;
19260;SDS011;9764;48.114;11.670;2022-10-23T06:45:03;2.45;;;1.48;;
19260;SDS011;9764;48.114;11.670;2022-10-23T06:47:52;1.48;;;1.38;;
19260;SDS011;9764;48.114;11.670;2022-10-23T06:50:53;1.58;;;1.48;;
19260;SDS011;9764;48.114;11.670;2022-10-23T06:53:32;1.55;;;1.38;;
19260;SDS011;9764;48.114;11.670;2022-10-23T06:56:15;1.52;;;1.42;;
19260;SDS011;9764;48.114;11.670;2022-10-23T06:58:44;1.50;;;1.38;;
19260;SDS011;9764;48.114;11.670;2022-10-23T07:01:14;1.40;;;1.30;;
19260;SDS011;9764;48.114;11.670;2022-10-23T07:03:46;1.85;;;1.50;;
19260;SDS011;9764;48.114;11.670;2022-10-23T07:06:19;1.45;;;1.35;;
19260;SDS011;9764;48.114;11.670;2022-10-23T07:08:47;1.45;;;1.33;;
19260;SDS011;9764;48.114;11.670;2022-10-23T07:11:36;1.35;;;1.25;;
19260;SDS011;9764;48.114;11.670;2022-10-23T07:14:04;1.50;;;1.40;;
19260;SDS011;9764;48.114;11.670;2022-10-23T07:16:32;1.52;;;1.42;;
19260;SDS011;9764;48.114;11.670;2022-10-23T07:19:02;1.52;;;1.42;;
19260;SDS011;9764;48.114;11.670;2022-10-23T07:21:54;1.30;;;1.20;;
19260;SDS011;9764;48.114;11.670;2022-10-23T07:24:36;1.52;;;1.40;;
19260;SDS011;9764;48.114;11.670;2022-10-23T07:27:20;1.30;;;1.20;;
19260;SDS011;9764;48.114;11.670;2022-10-23T07:29:54;2.33;;;1.33;;
19260;SDS011;9764;48.114;11.670;2022-10-23T07:32:26;1.40;;;1.30;;
19260;SDS011;9764;48.114;11.670;2022-10-23T07:35:16;1.20;;;1.10;;
19260;SDS011;9764;48.114;11.670;2022-10-23T07:37:52;1.40;;;1.30;;
19260;SDS011;9764;48.114;11.670;2022-10-23T07:40:21;1.40;;;1.30;;
19260;SDS011;9764;48.114;11.670;2022-10-23T07:42:55;1.40;;;1.30;;
19260;SDS011;9764;48.114;11.670;2022-10-23T07:45:24;1.40;;;1.30;;
19260;SDS011;9764;48.114;11.670;2022-10-23T07:47:52;1.40;;;1.30;;
19260;SDS011;9764;48.114;11.670;2022-10-23T07:50:25;1.38;;;1.23;;
19260;SDS011;9764;48.114;11.670;2022-10-23T07:52:54;1.77;;;1.45;;
19260;SDS011;9764;48.114;11.670;2022-10-23T07:55:33;1.50;;;1.40;;
19260;SDS011;9764;48.114;11.670;2022-10-23T07:58:08;1.30;;;1.10;;
19260;SDS011;9764;48.114;11.670;2022-10-23T08:00:53;1.50;;;1.40;;
19260;SDS011;9764;48.114;11.670;2022-10-23T08:03:31;1.45;;;1.35;;
19260;SDS011;9764;48.114;11.670;2022-10-23T08:06:02;2.40;;;1.40;;
19260;SDS011;9764;48.114;11.670;2022-10-23T08:08:31;1.40;;;1.30;;
19260;SDS011;9764;48.114;11.670;2022-10-23T08:11:02;1.30;;;1.20;;
19260;SDS011;9764;48.114;11.670;2022-10-23T08:13:41;1.75;;;1.65;;
19260;SDS011;9764;48.114;11.670;2022-10-23T08:16:10;1.58;;;1.42;;
19260;SDS011;9764;48.114;11.670;2022-10-23T08:18:57;1.35;;;1.20;;
19260;SDS011;9764;48.114;11.670;2022-10-23T08:21:28;1.63;;;1.52;;
19260;SDS011;9764;48.114;11.670;2022-10-23T08:23:57;1.25;;;1.17;;
19260;SDS011;9764;48.114;11.670;2022-10-23T08:26:28;1.30;;;1.20;;
19260;SDS011;9764;48.114;11.670;2022-10-23T08:28:56;1.23;;;1.20;;
19260;SDS011;9764;48.114;11.670;2022-10-23T08:31:26;1.88;;;1.17;;
19260;SDS011;9764;48.114;11.670;2022-10-23T08:34:15;1.40;;;1.30;;
19260;SDS011;9764;48.114;11.670;2022-10-23T08:36:48;1.17;;;1.08;;
19260;SDS011;9764;48.114;11.670;2022-10-23T08:39:16;1.52;;;1.35;;
19260;SDS011;9764;48.114;11.670;2022-10-23T08:41:59;1.25;;;1.15;;
19260;SDS011;9764;48.114;11.670;2022-10-23T08:44:29;1.30;;;1.20;;
19260;SDS011;9764;48.114;11.670;2022-10-23T08:47:02;1.52;;;1.40;;
19260;SDS011;9764;48.114;11.670;2022-10-23T08:50:06;1.92;;;1.20;;
19260;SDS011;9764;48.114;11.670;2022-10-23T08:52:43;1.50;;;1.33;;
19260;SDS011;9764;48.114;11.670;2022-10-23T08:55:16;1.40;;;1.30;;
19260;SDS011;9764;48.114;11.670;2022-10-23T08:57:52;1.23;;;1.15;;
19260;SDS011;9764;48.114;11.670;2022-10-23T09:00:25;1.40;;;1.30;;
19260;SDS011;9764;48.114;11.670;2022-10-23T09:02:55;1.23;;;1.13;;
19260;SDS011;9764;48.114;11.670;2022-10-23T09:05:24;1.33;;;1.23;;
19260;SDS011;9764;48.114;11.670;2022-10-23T09:11:00;1.10;;;1.00;;
19260;SDS011;9764;48.114;11.670;2022-10-23T09:16:21;1.40;;;1.30;;
19260;SDS011;9764;48.114;11.670;2022-10-23T09:18:58;1.40;;;1.30;;
19260;SDS011;9764;48.114;11.670;2022-10-23T09:21:27;1.48;;;1.38;;
19260;SDS011;9764;48.114;11.670;2022-10-23T09:23:57;1.13;;;1.08;;
19260;SDS011;9764;48.114;11.670;2022-10-23T09:26:25;2.13;;;1.30;;
19260;SDS011;9764;48.114;11.670;2022-10-23T09:29:08;1.40;;;1.17;;
19260;SDS011;9764;48.114;11.670;2022-10-23T09:31:48;1.23;;;1.13;;
19260;SDS011;9764;48.114;11.670;2022-10-23T09:34:18;1.20;;;1.10;;
19260;SDS011;9764;48.114;11.670;2022-10-23T09:36:48;1.15;;;1.05;;
19260;SDS011;9764;48.114;11.670;2022-10-23T09:39:24;1.20;;;1.20;;
19260;SDS011;9764;48.114;11.670;2022-10-23T09:41:54;1.30;;;1.15;;
19260;SDS011;9764;48.114;11.670;2022-10-23T09:44:24;1.27;;;1.05;;
19260;SDS011;9764;48.114;11.670;2022-10-23T09:46:57;1.10;;;1.00;;
19260;SDS011;9764;48.114;11.670;2022-10-23T09:49:28;2.53;;;1.30;;
19260;SDS011;9764;48.114;11.670;2022-10-23T09:51:59;1.10;;;1.00;;
19260;SDS011;9764;48.114;11.670;2022-10-23T09:54:31;1.10;;;1.00;;
19260;SDS011;9764;48.114;11.670;2022-10-23T09:57:03;1.65;;;1.35;;
19260;SDS011;9764;48.114;11.670;2022-10-23T09:59:41;1.73;;;1.23;;
19260;SDS011;9764;48.114;11.670;2022-10-23T10:02:18;1.40;;;1.30;;
19260;SDS011;9764;48.114;11.670;2022-10-23T10:05:21;1.90;;;1.10;;
19260;SDS011;9764;48.114;11.670;2022-10-23T10:07:54;1.27;;;1.17;;
19260;SDS011;9764;48.114;11.670;2022-10-23T10:10:28;2.50;;;1.35;;
19260;SDS011;9764;48.114;11.670;2022-10-23T10:13:02;3.92;;;1.58;;
19260;SDS011;9764;48.114;11.670;2022-10-23T10:15:42;6.70;;;1.45;;
19260;SDS011;9764;48.114;11.670;2022-10-23T10:18:16;3.78;;;1.17;;
19260;SDS011;9764;48.114;11.670;2022-10-23T10:20:58;3.42;;;1.30;;
19260;SDS011;9764;48.114;11.670;2022-10-23T10:23:40;6.32;;;1.25;;
19260;SDS011;9764;48.114;11.670;2022-10-23T10:26:16;2.53;;;1.27;;
19260;SDS011;9764;48.114;11.670;2022-10-23T10:28:59;3.33;;;1.20;;
19260;SDS011;9764;48.114;11.670;2022-10-23T10:31:40;2.83;;;1.10;;
19260;SDS011;9764;48.114;11.670;2022-10-23T10:34:20;2.78;;;1.38;;
19260;SDS011;9764;48.114;11.670;2022-10-23T10:36:55;2.63;;;1.42;;
19260;SDS011;9764;48.114;11.670;2022-10-23T10:39:30;1.40;;;1.20;;
19260;SDS011;9764;48.114;11.670;2022-10-23T10:45:17;2.75;;;1.20;;
19260;SDS011;9764;48.114;11.670;2022-10-23T10:47:54;2.28;;;1.00;;
19260;SDS011;9764;48.114;11.670;2022-10-23T10:50:50;3.55;;;1.55;;
19260;SDS011;9764;48.114;11.670;2022-10-23T10:53:30;1.70;;;1.17;;
19260;SDS011;9764;48.114;11.670;2022-10-23T10:56:07;3.20;;;1.20;;
19260;SDS011;9764;48.114;11.670;2022-10-23T10:58:44;2.03;;;1.10;;
19260;SDS011;9764;48.114;11.670;2022-10-23T11:01:18;1.60;;;1.05;;
19260;SDS011;9764;48.114;11.670;2022-10-23T11:03:53;3.90;;;1.20;;
19260;SDS011;9764;48.114;11.670;2022-10-23T11:06:28;1.27;;;1.02;;
19260;SDS011;9764;48.114;11.670;2022-10-23T11:08:58;1.60;;;1.42;;
19260;SDS011;9764;48.114;11.670;2022-10-23T11:11:45;2.53;;;1.33;;
19260;SDS011;9764;48.114;11.670;2022-10-23T11:14:16;1.05;;;0.90;;
19260;SDS011;9764;48.114;11.670;2022-10-23T11:16:47;1.33;;;1.23;;
19260;SDS011;9764;48.114;11.670;2022-10-23T11:19:19;1.70;;;1.38;;
19260;SDS011;9764;48.114;11.670;2022-10-23T11:21:53;1.20;;;1.10;;
19260;SDS011;9764;48.114;11.670;2022-10-23T11:24:35;1.15;;;0.80;;
19260;SDS011;9764;48.114;11.670;2022-10-23T11:27:21;2.15;;;1.25;;
19260;SDS011;9764;48.114;11.670;2022-10-23T11:30:11;1.75;;;0.93;;
19260;SDS011;9764;48.114;11.670;2022-10-23T11:33:09;2.08;;;1.20;;
19260;SDS011;9764;48.114;11.670;2022-10-23T11:36:05;2.25;;;1.15;;
19260;SDS011;9764;48.114;11.670;2022-10-23T11:38:41;1.35;;;0.80;;
19260;SDS011;9764;48.114;11.670;2022-10-23T11:41:16;2.17;;;0.90;;
19260;SDS011;9764;48.114;11.670;2022-10-23T11:43:53;1.27;;;1.15;;
19260;SDS011;9764;48.114;11.670;2022-10-23T11:46:29;2.58;;;1.08;;
19260;SDS011;9764;48.114;11.670;2022-10-23T11:48:58;2.05;;;0.98;;
19260;SDS011;9764;48.114;11.670;2022-10-23T11:51:29;2.30;;;1.10;;
19260;SDS011;9764;48.114;11.670;2022-10-23T11:56:51;0.90;;;0.90;;
19260;SDS011;9764;48.114;11.670;2022-10-23T11:59:25;2.05;;;1.10;;
19260;SDS011;9764;48.114;11.670;2022-10-23T12:01:58;1.05;;;0.95;;
19260;SDS011;9764;48.114;11.670;2022-10-23T12:04:29;0.80;;;0.80;;
19260;SDS011;9764;48.114;11.670;2022-10-23T12:07:13;2.88;;;1.00;;
19260;SDS011;9764;48.114;11.670;2022-10-23T12:09:51;1.13;;;1.02;;
19260;SDS011;9764;48.114;11.670;2022-10-23T12:12:31;0.90;;;0.90;;
19260;SDS011;9764;48.114;11.670;2022-10-23T12:17:51;0.80;;;0.80;;
19260;SDS011;9764;48.114;11.670;2022-10-23T12:20:30;1.00;;;0.90;;
19260;SDS011;9764;48.114;11.670;2022-10-23T12:23:12;2.47;;;0.90;;
19260;SDS011;9764;48.114;11.670;2022-10-23T12:25:56;0.88;;;0.85;;
19260;SDS011;9764;48.114;11.670;2022-10-23T12:28:56;1.38;;;0.90;;
19260;SDS011;9764;48.114;11.670;2022-10-23T12:31:36;1.20;;;1.10;;
19260;SDS011;9764;48.114;11.670;2022-10-23T12:34:20;1.58;;;0.90;;
19260;SDS011;9764;48.114;11.670;2022-10-23T12:37:07;1.85;;;0.80;;
19260;SDS011;9764;48.114;11.670;2022-10-23T12:39:50;1.10;;;1.00;;
19260;SDS011;9764;48.114;11.670;2022-10-23T12:42:20;1.23;;;0.80;;
19260;SDS011;9764;48.114;11.670;2022-10-23T12:44:56;0.82;;;0.82;;
19260;SDS011;9764;48.114;11.670;2022-10-23T12:47:25;1.83;;;0.70;;
19260;SDS011;9764;48.114;11.670;2022-10-23T12:49:56;0.88;;;0.88;;
19260;SDS011;9764;48.114;11.670;2022-10-23T12:52:25;1.55;;;1.02;;
19260;SDS011;9764;48.114;11.670;2022-10-23T12:54:53;0.80;;;0.80;;
19260;SDS011;9764;48.114;11.670;2022-10-23T12:57:21;2.92;;;1.00;;
19260;SDS011;9764;48.114;11.670;2022-10-23T12:59:52;2.05;;;1.00;;
19260;SDS011;9764;48.114;11.670;2022-10-23T13:02:24;0.70;;;0.70;;
19260;SDS011;9764;48.114;11.670;2022-10-23T13:04:54;1.00;;;0.80;;
19260;SDS011;9764;48.114;11.670;2022-10-23T13:07:27;0.90;;;0.70;;
19260;SDS011;9764;48.114;11.670;2022-10-23T13:10:00;0.80;;;0.80;;
19260;SDS011;9764;48.114;11.670;2022-10-23T13:12:34;0.80;;;0.80;;
19260;SDS011;9764;48.114;11.670;2022-10-23T13:15:12;1.23;;;0.80;;
19260;SDS011;9764;48.114;11.670;2022-10-23T13:17:43;0.98;;;0.70;;
19260;SDS011;9764;48.114;11.670;2022-10-23T13:20:22;0.80;;;0.80;;
19260;SDS011;9764;48.114;11.670;2022-10-23T13:22:55;0.80;;;0.80;;
19260;SDS011;9764;48.114;11.670;2022-10-23T13:25:27;0.80;;;0.80;;
19260;SDS011;9764;48.114;11.670;2022-10-23T13:28:02;0.80;;;0.80;;
19260;SDS011;9764;48.114;11.670;2022-10-23T13:30:39;0.80;;;0.80;;
19260;SDS011;9764;48.114;11.670;2022-10-23T13:33:12;0.75;;;0.75;;
19260;SDS011;9764;48.114;11.670;2022-10-23T13:35:43;0.90;;;0.80;;
19260;SDS011;9764;48.114;11.670;2022-10-23T13:38:26;0.70;;;0.70;;
19260;SDS011;9764;48.114;11.670;2022-10-23T13:40:56;0.80;;;0.80;;
19260;SDS011;9764;48.114;11.670;2022-10-23T13:43:26;1.13;;;1.00;;
19260;SDS011;9764;48.114;11.670;2022-10-23T13:45:56;0.80;;;0.80;;
19260;SDS011;9764;48.114;11.670;2022-10-23T13:48:25;0.80;;;0.70;;
19260;SDS011;9764;48.114;11.670;2022-10-23T13:50:57;0.80;;;0.80;;
19260;SDS011;9764;48.114;11.670;2022-10-23T13:53:36;0.70;;;0.70;;
19260;SDS011;9764;48.114;11.670;2022-10-23T13:56:05;0.80;;;0.80;;
19260;SDS011;9764;48.114;11.670;2022-10-23T13:58:36;1.30;;;0.70;;
19260;SDS011;9764;48.114;11.670;2022-10-23T14:01:05;1.10;;;1.00;;
19260;SDS011;9764;48.114;11.670;2022-10-23T14:03:34;0.98;;;0.90;;
19260;SDS011;9764;48.114;11.670;2022-10-23T14:06:03;0.98;;;0.82;;
19260;SDS011;9764;48.114;11.670;2022-10-23T14:08:32;1.52;;;0.88;;
19260;SDS011;9764;48.114;11.670;2022-10-23T14:11:01;1.60;;;0.90;;
19260;SDS011;9764;48.114;11.670;2022-10-23T14:13:31;0.60;;;0.60;;
19260;SDS011;9764;48.114;11.670;2022-10-23T14:15:59;1.15;;;1.02;;
19260;SDS011;9764;48.114;11.670;2022-10-23T14:18:28;0.68;;;0.68;;
19260;SDS011;9764;48.114;11.670;2022-10-23T14:20:58;0.80;;;0.80;;
19260;SDS011;9764;48.114;11.670;2022-10-23T14:23:28;0.88;;;0.88;;
19260;SDS011;9764;48.114;11.670;2022-10-23T14:26:00;0.95;;;0.95;;
19260;SDS011;9764;48.114;11.670;2022-10-23T14:28:28;0.90;;;0.80;;
19260;SDS011;9764;48.114;11.670;2022-10-23T14:31:01;1.00;;;0.90;;
19260;SDS011;9764;48.114;11.670;2022-10-23T14:33:31;0.82;;;0.82;;
19260;SDS011;9764;48.114;11.670;2022-10-23T14:35:59;1.00;;;0.85;;
19260;SDS011;9764;48.114;11.670;2022-10-23T14:38:29;0.70;;;0.70;;
19260;SDS011;9764;48.114;11.670;2022-10-23T14:40:57;0.60;;;0.60;;
19260;SDS011;9764;48.114;11.670;2022-10-23T14:43:25;1.00;;;0.90;;
19260;SDS011;9764;48.114;11.670;2022-10-23T14:45:54;0.80;;;0.80;;
19260;SDS011;9764;48.114;11.670;2022-10-23T14:48:22;1.65;;;0.77;;
19260;SDS011;9764;48.114;11.670;2022-10-23T14:50:50;1.00;;;0.80;;
19260;SDS011;9764;48.114;11.670;2022-10-23T14:53:18;0.80;;;0.80;;
19260;SDS011;9764;48.114;11.670;2022-10-23T14:55:48;0.80;;;0.80;;
19260;SDS011;9764;48.114;11.670;2022-10-23T14:58:16;0.70;;;0.70;;
19260;SDS011;9764;48.114;11.670;2022-10-23T15:00:55;1.05;;;0.95;;
19260;SDS011;9764;48.114;11.670;2022-10-23T15:03:24;0.60;;;0.60;;
19260;SDS011;9764;48.114;11.670;2022-10-23T15:05:53;0.70;;;0.70;;
19260;SDS011;9764;48.114;11.670;2022-10-23T15:08:22;0.68;;;0.68;;
19260;SDS011;9764;48.114;11.670;2022-10-23T15:10:51;0.93;;;0.70;;
19260;SDS011;9764;48.114;11.670;2022-10-23T15:13:20;0.80;;;0.80;;
19260;SDS011;9764;48.114;11.670;2022-10-23T15:15:48;0.73;;;0.73;;
19260;SDS011;9764;48.114;11.670;2022-10-23T15:18:16;0.80;;;0.80;;
19260;SDS011;9764;48.114;11.670;2022-10-23T15:20:50;0.73;;;0.73;;
19260;SDS011;9764;48.114;11.670;2022-10-23T15:23:18;0.70;;;0.70;;
19260;SDS011;9764;48.114;11.670;2022-10-23T15:25:54;0.60;;;0.60;;
19260;SDS011;9764;48.114;11.670;2022-10-23T15:28:24;0.90;;;0.68;;
19260;SDS011;9764;48.114;11.670;2022-10-23T15:30:52;0.60;;;0.60;;
19260;SDS011;9764;48.114;11.670;2022-10-23T15:33:21;0.75;;;0.75;;
19260;SDS011;9764;48.114;11.670;2022-10-23T15:35:51;0.80;;;0.80;;
19260;SDS011;9764;48.114;11.670;2022-10-23T15:38:20;0.75;;;0.75;;
19260;SDS011;9764;48.114;11.670;2022-10-23T15:40:49;0.70;;;0.70;;
19260;SDS011;9764;48.114;11.670;2022-10-23T15:43:18;0.68;;;0.68;;